sensor_id;sensor_type;location;lat;lon;timestamp;P1;durP1;ratioP1;P2;durP2;ratioP2
15816;SDS011;8009;50.070;8.232;2023-11-22T00:00:15;1.40;;;1.30;;
15816;SDS011;8009;50.070;8.232;2023-11-22T00:02:46;1.03;;;1.03;;
15816;SDS011;8009;50.070;8.232;2023-11-22T00:05:14;1.17;;;1.17;;
15816;SDS011;8009;50.070;8.232;2023-11-22T00:07:43;1.27;;;1.17;;
15816;SDS011;8009;50.070;8.232;2023-11-22T00:10:11;1.60;;;1.53;;
15816;SDS011;8009;50.070;8.232;2023-11-22T00:12:42;1.20;;;1.20;;
15816;SDS011;8009;50.070;8.232;2023-11-22T00:15:10;1.67;;;1.57;;
15816;SDS011;8009;50.070;8.232;2023-11-22T00:17:43;1.17;;;1.13;;
15816;SDS011;8009;50.070;8.232;2023-11-22T00:20:11;2.33;;;1.73;;
15816;SDS011;8009;50.070;8.232;2023-11-22T00:22:39;1.00;;;1.00;;
15816;SDS011;8009;50.070;8.232;2023-11-22T00:25:10;1.50;;;1.40;;
15816;SDS011;8009;50.070;8.232;2023-11-22T00:27:45;1.33;;;1.23;;
15816;SDS011;8009;50.070;8.232;2023-11-22T00:30:14;2.43;;;1.67;;
15816;SDS011;8009;50.070;8.232;2023-11-22T00:32:43;1.07;;;1.07;;
15816;SDS011;8009;50.070;8.232;2023-11-22T00:35:11;1.90;;;1.80;;
15816;SDS011;8009;50.070;8.232;2023-11-22T00:37:39;1.10;;;1.10;;
15816;SDS011;8009;50.070;8.232;2023-11-22T00:43:24;2.63;;;1.40;;
15816;SDS011;8009;50.070;8.232;2023-11-22T00:45:53;1.57;;;1.47;;
15816;SDS011;8009;50.070;8.232;2023-11-22T00:48:22;1.30;;;1.20;;
15816;SDS011;8009;50.070;8.232;2023-11-22T00:50:52;3.00;;;1.30;;
15816;SDS011;8009;50.070;8.232;2023-11-22T00:53:20;2.87;;;1.67;;
15816;SDS011;8009;50.070;8.232;2023-11-22T01:11:22;1.80;;;1.70;;
15816;SDS011;8009;50.070;8.232;2023-11-22T01:13:50;1.70;;;1.60;;
15816;SDS011;8009;50.070;8.232;2023-11-22T01:16:31;1.67;;;1.50;;
15816;SDS011;8009;50.070;8.232;2023-11-22T01:18:59;1.50;;;1.40;;
15816;SDS011;8009;50.070;8.232;2023-11-22T01:21:27;1.73;;;1.63;;
15816;SDS011;8009;50.070;8.232;2023-11-22T01:23:59;8.80;;;2.40;;
15816;SDS011;8009;50.070;8.232;2023-11-22T01:29:40;1.40;;;1.30;;
15816;SDS011;8009;50.070;8.232;2023-11-22T01:32:08;4.10;;;1.70;;
15816;SDS011;8009;50.070;8.232;2023-11-22T01:34:38;1.60;;;1.50;;
15816;SDS011;8009;50.070;8.232;2023-11-22T01:49:38;1.23;;;1.23;;
15816;SDS011;8009;50.070;8.232;2023-11-22T01:52:06;1.93;;;1.83;;
15816;SDS011;8009;50.070;8.232;2023-11-22T01:54:35;1.23;;;1.23;;
15816;SDS011;8009;50.070;8.232;2023-11-22T02:16:12;3.30;;;1.90;;
15816;SDS011;8009;50.070;8.232;2023-11-22T02:18:43;1.77;;;1.67;;
15816;SDS011;8009;50.070;8.232;2023-11-22T02:21:11;1.43;;;1.33;;
15816;SDS011;8009;50.070;8.232;2023-11-22T02:23:42;2.80;;;1.37;;
15816;SDS011;8009;50.070;8.232;2023-11-22T02:26:08;1.83;;;1.73;;
15816;SDS011;8009;50.070;8.232;2023-11-22T02:28:36;1.40;;;1.40;;
15816;SDS011;8009;50.070;8.232;2023-11-22T02:31:05;1.47;;;1.37;;
15816;SDS011;8009;50.070;8.232;2023-11-22T02:33:41;1.57;;;1.20;;
15816;SDS011;8009;50.070;8.232;2023-11-22T02:42:36;2.97;;;1.53;;
15816;SDS011;8009;50.070;8.232;2023-11-22T02:45:04;1.57;;;1.47;;
15816;SDS011;8009;50.070;8.232;2023-11-22T02:47:34;1.43;;;1.33;;
15816;SDS011;8009;50.070;8.232;2023-11-22T03:08:47;2.37;;;1.30;;
15816;SDS011;8009;50.070;8.232;2023-11-22T03:11:15;1.80;;;1.70;;
15816;SDS011;8009;50.070;8.232;2023-11-22T03:13:44;1.03;;;1.03;;
15816;SDS011;8009;50.070;8.232;2023-11-22T03:19:35;1.37;;;1.37;;
15816;SDS011;8009;50.070;8.232;2023-11-22T03:22:05;1.50;;;1.40;;
15816;SDS011;8009;50.070;8.232;2023-11-22T03:40:23;1.00;;;1.00;;
15816;SDS011;8009;50.070;8.232;2023-11-22T03:42:52;7.93;;;1.87;;
15816;SDS011;8009;50.070;8.232;2023-11-22T03:45:20;1.10;;;1.10;;
15816;SDS011;8009;50.070;8.232;2023-11-22T03:47:50;1.67;;;1.40;;
15816;SDS011;8009;50.070;8.232;2023-11-22T03:50:18;2.13;;;1.93;;
15816;SDS011;8009;50.070;8.232;2023-11-22T03:52:47;1.47;;;1.37;;
15816;SDS011;8009;50.070;8.232;2023-11-22T03:55:15;1.60;;;1.50;;
15816;SDS011;8009;50.070;8.232;2023-11-22T04:07:02;1.17;;;1.17;;
15816;SDS011;8009;50.070;8.232;2023-11-22T04:25:29;1.43;;;1.33;;
15816;SDS011;8009;50.070;8.232;2023-11-22T04:37:14;1.70;;;1.60;;
15816;SDS011;8009;50.070;8.232;2023-11-22T04:39:42;4.13;;;1.60;;
15816;SDS011;8009;50.070;8.232;2023-11-22T04:42:17;1.23;;;1.23;;
15816;SDS011;8009;50.070;8.232;2023-11-22T04:57:32;1.10;;;1.10;;
15816;SDS011;8009;50.070;8.232;2023-11-22T05:00:01;1.50;;;1.40;;
15816;SDS011;8009;50.070;8.232;2023-11-22T05:02:32;1.43;;;1.33;;
15816;SDS011;8009;50.070;8.232;2023-11-22T05:05:00;1.80;;;1.70;;
15816;SDS011;8009;50.070;8.232;2023-11-22T05:16:49;1.50;;;1.40;;
15816;SDS011;8009;50.070;8.232;2023-11-22T05:19:17;1.40;;;1.40;;
15816;SDS011;8009;50.070;8.232;2023-11-22T05:28:18;1.80;;;1.70;;
15816;SDS011;8009;50.070;8.232;2023-11-22T05:30:49;1.43;;;1.40;;
15816;SDS011;8009;50.070;8.232;2023-11-22T06:15:56;1.30;;;1.30;;
15816;SDS011;8009;50.070;8.232;2023-11-22T06:18:25;1.77;;;1.67;;
15816;SDS011;8009;50.070;8.232;2023-11-22T06:20:55;1.77;;;1.60;;
15816;SDS011;8009;50.070;8.232;2023-11-22T06:23:23;2.10;;;1.90;;
15816;SDS011;8009;50.070;8.232;2023-11-22T06:25:52;2.30;;;1.67;;
15816;SDS011;8009;50.070;8.232;2023-11-22T06:28:20;1.30;;;1.30;;
15816;SDS011;8009;50.070;8.232;2023-11-22T06:30:52;0.90;;;0.90;;
15816;SDS011;8009;50.070;8.232;2023-11-22T06:36:31;1.53;;;1.43;;
15816;SDS011;8009;50.070;8.232;2023-11-22T06:45:35;1.70;;;1.60;;
15816;SDS011;8009;50.070;8.232;2023-11-22T06:48:07;1.70;;;1.60;;
15816;SDS011;8009;50.070;8.232;2023-11-22T06:50:35;2.40;;;2.20;;
15816;SDS011;8009;50.070;8.232;2023-11-22T06:59:35;1.40;;;1.30;;
15816;SDS011;8009;50.070;8.232;2023-11-22T07:02:03;1.20;;;1.20;;
15816;SDS011;8009;50.070;8.232;2023-11-22T07:04:35;1.40;;;1.30;;
15816;SDS011;8009;50.070;8.232;2023-11-22T07:07:06;1.13;;;1.13;;
15816;SDS011;8009;50.070;8.232;2023-11-22T07:09:36;1.53;;;1.43;;
15816;SDS011;8009;50.070;8.232;2023-11-22T07:12:04;1.60;;;1.50;;
15816;SDS011;8009;50.070;8.232;2023-11-22T07:14:33;1.20;;;1.10;;
15816;SDS011;8009;50.070;8.232;2023-11-22T07:17:02;1.40;;;1.33;;
15816;SDS011;8009;50.070;8.232;2023-11-22T07:19:32;1.40;;;1.30;;
15816;SDS011;8009;50.070;8.232;2023-11-22T07:22:03;1.33;;;1.33;;
15816;SDS011;8009;50.070;8.232;2023-11-22T07:24:41;2.30;;;1.40;;
15816;SDS011;8009;50.070;8.232;2023-11-22T07:27:12;1.70;;;1.60;;
15816;SDS011;8009;50.070;8.232;2023-11-22T07:29:41;1.43;;;1.33;;
15816;SDS011;8009;50.070;8.232;2023-11-22T07:32:10;1.73;;;1.47;;
15816;SDS011;8009;50.070;8.232;2023-11-22T07:34:44;1.40;;;1.30;;
15816;SDS011;8009;50.070;8.232;2023-11-22T07:37:12;1.53;;;1.47;;
15816;SDS011;8009;50.070;8.232;2023-11-22T07:39:41;1.30;;;1.20;;
15816;SDS011;8009;50.070;8.232;2023-11-22T07:42:10;1.60;;;1.50;;
15816;SDS011;8009;50.070;8.232;2023-11-22T07:44:38;1.07;;;1.07;;
15816;SDS011;8009;50.070;8.232;2023-11-22T07:47:07;1.70;;;1.60;;
15816;SDS011;8009;50.070;8.232;2023-11-22T07:49:38;1.00;;;1.00;;
15816;SDS011;8009;50.070;8.232;2023-11-22T07:52:09;1.73;;;1.63;;
15816;SDS011;8009;50.070;8.232;2023-11-22T07:54:38;3.03;;;2.17;;
15816;SDS011;8009;50.070;8.232;2023-11-22T07:57:07;2.20;;;1.90;;
15816;SDS011;8009;50.070;8.232;2023-11-22T07:59:35;1.53;;;1.43;;
15816;SDS011;8009;50.070;8.232;2023-11-22T08:02:04;3.70;;;1.73;;
15816;SDS011;8009;50.070;8.232;2023-11-22T08:04:36;1.50;;;1.40;;
15816;SDS011;8009;50.070;8.232;2023-11-22T08:07:05;1.73;;;1.63;;
15816;SDS011;8009;50.070;8.232;2023-11-22T08:09:38;2.00;;;1.83;;
15816;SDS011;8009;50.070;8.232;2023-11-22T08:12:07;1.80;;;1.70;;
15816;SDS011;8009;50.070;8.232;2023-11-22T08:14:36;1.90;;;1.60;;
15816;SDS011;8009;50.070;8.232;2023-11-22T08:17:05;1.57;;;1.47;;
15816;SDS011;8009;50.070;8.232;2023-11-22T08:19:33;1.97;;;1.87;;
15816;SDS011;8009;50.070;8.232;2023-11-22T08:22:04;1.70;;;1.63;;
15816;SDS011;8009;50.070;8.232;2023-11-22T08:24:33;1.80;;;1.70;;
15816;SDS011;8009;50.070;8.232;2023-11-22T08:27:05;1.50;;;1.40;;
15816;SDS011;8009;50.070;8.232;2023-11-22T08:29:33;1.30;;;1.30;;
15816;SDS011;8009;50.070;8.232;2023-11-22T08:32:03;1.70;;;1.60;;
15816;SDS011;8009;50.070;8.232;2023-11-22T08:34:35;2.37;;;2.17;;
15816;SDS011;8009;50.070;8.232;2023-11-22T08:37:03;1.67;;;1.53;;
15816;SDS011;8009;50.070;8.232;2023-11-22T08:39:32;1.20;;;1.17;;
15816;SDS011;8009;50.070;8.232;2023-11-22T08:48:26;1.80;;;1.70;;
15816;SDS011;8009;50.070;8.232;2023-11-22T09:55:41;1.57;;;1.47;;
15816;SDS011;8009;50.070;8.232;2023-11-22T09:58:11;2.27;;;1.87;;
15816;SDS011;8009;50.070;8.232;2023-11-22T13:04:00;1.50;;;1.40;;
15816;SDS011;8009;50.070;8.232;2023-11-22T13:06:28;1.23;;;1.10;;
15816;SDS011;8009;50.070;8.232;2023-11-22T13:08:57;1.67;;;1.50;;
15816;SDS011;8009;50.070;8.232;2023-11-22T13:11:25;1.67;;;1.50;;
15816;SDS011;8009;50.070;8.232;2023-11-22T13:13:54;1.20;;;1.20;;
15816;SDS011;8009;50.070;8.232;2023-11-22T13:16:22;1.10;;;1.10;;
15816;SDS011;8009;50.070;8.232;2023-11-22T13:18:50;1.20;;;1.20;;
15816;SDS011;8009;50.070;8.232;2023-11-22T13:21:21;1.90;;;1.80;;
15816;SDS011;8009;50.070;8.232;2023-11-22T13:23:50;2.40;;;1.70;;
15816;SDS011;8009;50.070;8.232;2023-11-22T13:26:18;2.67;;;2.40;;
15816;SDS011;8009;50.070;8.232;2023-11-22T13:28:46;2.13;;;1.93;;
15816;SDS011;8009;50.070;8.232;2023-11-22T13:31:15;2.27;;;1.77;;
15816;SDS011;8009;50.070;8.232;2023-11-22T13:33:43;1.80;;;1.70;;
15816;SDS011;8009;50.070;8.232;2023-11-22T13:36:12;7.67;;;6.97;;
15816;SDS011;8009;50.070;8.232;2023-11-22T13:38:43;2.73;;;2.03;;
15816;SDS011;8009;50.070;8.232;2023-11-22T13:41:12;2.10;;;1.90;;
15816;SDS011;8009;50.070;8.232;2023-11-22T13:43:40;1.83;;;1.73;;
15816;SDS011;8009;50.070;8.232;2023-11-22T13:46:09;2.03;;;1.93;;
15816;SDS011;8009;50.070;8.232;2023-11-22T13:48:38;1.93;;;1.73;;
15816;SDS011;8009;50.070;8.232;2023-11-22T13:51:06;2.47;;;2.28;;
15816;SDS011;8009;50.070;8.232;2023-11-22T13:53:37;2.37;;;2.03;;
15816;SDS011;8009;50.070;8.232;2023-11-22T13:56:12;2.33;;;2.13;;
15816;SDS011;8009;50.070;8.232;2023-11-22T13:58:43;1.90;;;1.53;;
15816;SDS011;8009;50.070;8.232;2023-11-22T14:01:12;2.50;;;2.33;;
15816;SDS011;8009;50.070;8.232;2023-11-22T14:03:46;3.07;;;2.80;;
15816;SDS011;8009;50.070;8.232;2023-11-22T14:06:14;1.90;;;1.80;;
15816;SDS011;8009;50.070;8.232;2023-11-22T14:08:43;2.93;;;2.73;;
15816;SDS011;8009;50.070;8.232;2023-11-22T14:11:14;2.77;;;2.57;;
15816;SDS011;8009;50.070;8.232;2023-11-22T14:13:42;2.07;;;1.87;;
15816;SDS011;8009;50.070;8.232;2023-11-22T14:16:11;2.57;;;2.37;;
15816;SDS011;8009;50.070;8.232;2023-11-22T14:18:40;1.90;;;1.80;;
15816;SDS011;8009;50.070;8.232;2023-11-22T14:21:08;2.47;;;2.30;;
15816;SDS011;8009;50.070;8.232;2023-11-22T14:23:36;2.07;;;1.93;;
15816;SDS011;8009;50.070;8.232;2023-11-22T14:26:05;2.43;;;2.33;;
15816;SDS011;8009;50.070;8.232;2023-11-22T14:28:36;3.37;;;1.70;;
15816;SDS011;8009;50.070;8.232;2023-11-22T14:34:16;1.90;;;1.80;;
15816;SDS011;8009;50.070;8.232;2023-11-22T14:36:44;1.23;;;1.13;;
15816;SDS011;8009;50.070;8.232;2023-11-22T14:39:13;2.37;;;2.17;;
15816;SDS011;8009;50.070;8.232;2023-11-22T14:41:41;1.90;;;1.80;;
15816;SDS011;8009;50.070;8.232;2023-11-22T14:44:14;2.50;;;1.97;;
15816;SDS011;8009;50.070;8.232;2023-11-22T14:46:43;2.03;;;1.87;;
15816;SDS011;8009;50.070;8.232;2023-11-22T14:49:12;1.90;;;1.80;;
15816;SDS011;8009;50.070;8.232;2023-11-22T14:51:41;2.87;;;2.43;;
15816;SDS011;8009;50.070;8.232;2023-11-22T14:54:10;2.40;;;2.30;;
15816;SDS011;8009;50.070;8.232;2023-11-22T14:56:39;2.40;;;1.90;;
15816;SDS011;8009;50.070;8.232;2023-11-22T14:59:07;1.67;;;1.57;;
15816;SDS011;8009;50.070;8.232;2023-11-22T15:01:38;2.40;;;2.00;;
15816;SDS011;8009;50.070;8.232;2023-11-22T15:04:09;2.70;;;2.50;;
15816;SDS011;8009;50.070;8.232;2023-11-22T15:06:37;1.80;;;1.70;;
15816;SDS011;8009;50.070;8.232;2023-11-22T15:09:05;1.80;;;1.70;;
15816;SDS011;8009;50.070;8.232;2023-11-22T15:21:10;2.20;;;2.10;;
15816;SDS011;8009;50.070;8.232;2023-11-22T15:33:15;2.10;;;2.00;;
15816;SDS011;8009;50.070;8.232;2023-11-22T15:35:44;2.67;;;2.47;;
15816;SDS011;8009;50.070;8.232;2023-11-22T15:38:17;2.83;;;2.50;;
15816;SDS011;8009;50.070;8.232;2023-11-22T15:40:47;1.80;;;1.70;;
15816;SDS011;8009;50.070;8.232;2023-11-22T15:43:15;2.27;;;2.17;;
15816;SDS011;8009;50.070;8.232;2023-11-22T15:45:44;1.93;;;1.83;;
15816;SDS011;8009;50.070;8.232;2023-11-22T15:48:13;2.83;;;2.03;;
15816;SDS011;8009;50.070;8.232;2023-11-22T15:50:41;2.13;;;1.97;;
15816;SDS011;8009;50.070;8.232;2023-11-22T15:53:09;2.17;;;2.07;;
15816;SDS011;8009;50.070;8.232;2023-11-22T15:55:44;1.63;;;1.53;;
15816;SDS011;8009;50.070;8.232;2023-11-22T15:58:13;2.90;;;2.63;;
15816;SDS011;8009;50.070;8.232;2023-11-22T16:00:42;5.57;;;1.97;;
15816;SDS011;8009;50.070;8.232;2023-11-22T16:03:11;2.50;;;2.37;;
15816;SDS011;8009;50.070;8.232;2023-11-22T16:05:42;3.10;;;2.80;;
15816;SDS011;8009;50.070;8.232;2023-11-22T16:08:13;2.50;;;2.30;;
15816;SDS011;8009;50.070;8.232;2023-11-22T16:10:44;1.67;;;1.57;;
15816;SDS011;8009;50.070;8.232;2023-11-22T16:13:13;2.00;;;1.90;;
15816;SDS011;8009;50.070;8.232;2023-11-22T16:15:41;2.33;;;2.23;;
15816;SDS011;8009;50.070;8.232;2023-11-22T16:18:10;2.43;;;2.27;;
15816;SDS011;8009;50.070;8.232;2023-11-22T16:20:38;2.70;;;2.50;;
15816;SDS011;8009;50.070;8.232;2023-11-22T16:23:07;3.77;;;2.60;;
15816;SDS011;8009;50.070;8.232;2023-11-22T16:25:36;1.97;;;1.87;;
15816;SDS011;8009;50.070;8.232;2023-11-22T16:28:07;2.38;;;2.17;;
15816;SDS011;8009;50.070;8.232;2023-11-22T16:30:36;3.17;;;2.37;;
15816;SDS011;8009;50.070;8.232;2023-11-22T16:33:04;2.60;;;2.40;;
15816;SDS011;8009;50.070;8.232;2023-11-22T16:35:32;2.17;;;1.97;;
15816;SDS011;8009;50.070;8.232;2023-11-22T16:38:01;2.87;;;2.23;;
15816;SDS011;8009;50.070;8.232;2023-11-22T16:40:29;2.17;;;2.00;;
15816;SDS011;8009;50.070;8.232;2023-11-22T16:42:58;1.97;;;1.80;;
15816;SDS011;8009;50.070;8.232;2023-11-22T16:45:29;2.37;;;2.27;;
15816;SDS011;8009;50.070;8.232;2023-11-22T16:47:57;1.80;;;1.70;;
15816;SDS011;8009;50.070;8.232;2023-11-22T16:50:26;3.13;;;2.70;;
15816;SDS011;8009;50.070;8.232;2023-11-22T16:52:54;3.00;;;2.10;;
15816;SDS011;8009;50.070;8.232;2023-11-22T16:55:23;2.80;;;2.60;;
15816;SDS011;8009;50.070;8.232;2023-11-22T16:57:51;3.43;;;3.13;;
15816;SDS011;8009;50.070;8.232;2023-11-22T17:00:21;2.10;;;2.00;;
15816;SDS011;8009;50.070;8.232;2023-11-22T17:02:54;3.37;;;3.07;;
15816;SDS011;8009;50.070;8.232;2023-11-22T17:05:25;3.07;;;2.77;;
15816;SDS011;8009;50.070;8.232;2023-11-22T17:07:53;3.10;;;2.87;;
15816;SDS011;8009;50.070;8.232;2023-11-22T17:10:23;2.90;;;2.70;;
15816;SDS011;8009;50.070;8.232;2023-11-22T17:12:52;3.27;;;2.97;;
15816;SDS011;8009;50.070;8.232;2023-11-22T17:15:20;3.13;;;2.83;;
15816;SDS011;8009;50.070;8.232;2023-11-22T17:17:50;6.50;;;2.80;;
15816;SDS011;8009;50.070;8.232;2023-11-22T17:20:21;3.50;;;2.93;;
15816;SDS011;8009;50.070;8.232;2023-11-22T17:22:49;8.63;;;6.40;;
15816;SDS011;8009;50.070;8.232;2023-11-22T17:25:18;3.30;;;3.07;;
15816;SDS011;8009;50.070;8.232;2023-11-22T17:27:47;4.07;;;3.13;;
15816;SDS011;8009;50.070;8.232;2023-11-22T17:30:15;3.50;;;3.30;;
15816;SDS011;8009;50.070;8.232;2023-11-22T17:32:45;2.70;;;2.50;;
15816;SDS011;8009;50.070;8.232;2023-11-22T17:35:14;3.67;;;3.37;;
15816;SDS011;8009;50.070;8.232;2023-11-22T17:37:45;2.67;;;2.47;;
15816;SDS011;8009;50.070;8.232;2023-11-22T17:40:14;3.13;;;2.83;;
15816;SDS011;8009;50.070;8.232;2023-11-22T17:42:43;4.43;;;3.30;;
15816;SDS011;8009;50.070;8.232;2023-11-22T17:45:11;7.20;;;6.07;;
15816;SDS011;8009;50.070;8.232;2023-11-22T17:47:40;7.25;;;4.68;;
15816;SDS011;8009;50.070;8.232;2023-11-22T17:50:08;4.40;;;4.00;;
15816;SDS011;8009;50.070;8.232;2023-11-22T17:52:37;3.97;;;3.57;;
15816;SDS011;8009;50.070;8.232;2023-11-22T18:00:59;3.50;;;3.20;;
15816;SDS011;8009;50.070;8.232;2023-11-22T18:03:28;3.10;;;2.83;;
15816;SDS011;8009;50.070;8.232;2023-11-22T18:05:56;4.93;;;3.13;;
15816;SDS011;8009;50.070;8.232;2023-11-22T18:08:24;3.23;;;2.93;;
15816;SDS011;8009;50.070;8.232;2023-11-22T18:10:53;3.20;;;2.87;;
15816;SDS011;8009;50.070;8.232;2023-11-22T18:13:21;3.00;;;2.80;;
15816;SDS011;8009;50.070;8.232;2023-11-22T18:50:32;2.43;;;2.23;;
15816;SDS011;8009;50.070;8.232;2023-11-22T19:15:23;3.00;;;2.70;;
15816;SDS011;8009;50.070;8.232;2023-11-22T19:17:52;12.67;;;3.37;;
15816;SDS011;8009;50.070;8.232;2023-11-22T19:20:22;4.90;;;2.63;;
15816;SDS011;8009;50.070;8.232;2023-11-22T19:26:19;3.17;;;2.70;;
15816;SDS011;8009;50.070;8.232;2023-11-22T19:28:48;3.30;;;3.00;;
15816;SDS011;8009;50.070;8.232;2023-11-22T19:50:11;3.40;;;3.20;;
15816;SDS011;8009;50.070;8.232;2023-11-22T19:52:40;3.40;;;3.10;;
15816;SDS011;8009;50.070;8.232;2023-11-22T20:04:59;2.73;;;2.53;;
15816;SDS011;8009;50.070;8.232;2023-11-22T20:10:41;3.63;;;2.77;;
15816;SDS011;8009;50.070;8.232;2023-11-22T20:35:14;14.63;;;9.60;;
15816;SDS011;8009;50.070;8.232;2023-11-22T20:37:48;5.87;;;3.77;;
15816;SDS011;8009;50.070;8.232;2023-11-22T20:40:20;4.27;;;3.90;;
15816;SDS011;8009;50.070;8.232;2023-11-22T20:42:50;2.90;;;2.70;;
15816;SDS011;8009;50.070;8.232;2023-11-22T20:45:20;3.53;;;3.23;;
15816;SDS011;8009;50.070;8.232;2023-11-22T20:47:49;10.87;;;6.67;;
15816;SDS011;8009;50.070;8.232;2023-11-22T20:50:18;3.97;;;3.67;;
15816;SDS011;8009;50.070;8.232;2023-11-22T20:52:50;2.83;;;2.63;;
15816;SDS011;8009;50.070;8.232;2023-11-22T20:55:22;4.53;;;4.13;;
15816;SDS011;8009;50.070;8.232;2023-11-22T20:57:54;4.27;;;2.73;;
15816;SDS011;8009;50.070;8.232;2023-11-22T21:00:29;3.40;;;3.10;;
15816;SDS011;8009;50.070;8.232;2023-11-22T21:03:12;3.63;;;3.33;;
15816;SDS011;8009;50.070;8.232;2023-11-22T21:05:45;3.97;;;3.20;;
15816;SDS011;8009;50.070;8.232;2023-11-22T21:08:15;4.23;;;3.93;;
15816;SDS011;8009;50.070;8.232;2023-11-22T21:10:54;2.43;;;2.30;;
15816;SDS011;8009;50.070;8.232;2023-11-22T21:13:25;3.00;;;2.80;;
15816;SDS011;8009;50.070;8.232;2023-11-22T21:15:57;3.00;;;2.80;;
15816;SDS011;8009;50.070;8.232;2023-11-22T21:18:26;3.93;;;3.63;;
15816;SDS011;8009;50.070;8.232;2023-11-22T21:20:54;4.32;;;3.95;;
15816;SDS011;8009;50.070;8.232;2023-11-22T21:23:23;2.80;;;2.53;;
15816;SDS011;8009;50.070;8.232;2023-11-22T21:25:57;3.50;;;3.30;;
15816;SDS011;8009;50.070;8.232;2023-11-22T21:31:29;3.53;;;3.23;;
15816;SDS011;8009;50.070;8.232;2023-11-22T21:33:57;3.07;;;2.87;;
15816;SDS011;8009;50.070;8.232;2023-11-22T21:39:39;3.10;;;2.90;;
15816;SDS011;8009;50.070;8.232;2023-11-22T21:45:22;4.03;;;3.63;;
15816;SDS011;8009;50.070;8.232;2023-11-22T21:47:50;5.63;;;4.83;;
15816;SDS011;8009;50.070;8.232;2023-11-22T21:50:20;4.40;;;4.00;;
15816;SDS011;8009;50.070;8.232;2023-11-22T21:52:48;3.43;;;3.23;;
15816;SDS011;8009;50.070;8.232;2023-11-22T21:55:17;3.53;;;3.30;;
15816;SDS011;8009;50.070;8.232;2023-11-22T21:57:51;2.93;;;2.53;;
15816;SDS011;8009;50.070;8.232;2023-11-22T22:00:22;4.40;;;4.10;;
15816;SDS011;8009;50.070;8.232;2023-11-22T22:02:51;6.83;;;4.17;;
15816;SDS011;8009;50.070;8.232;2023-11-22T22:05:20;4.00;;;3.80;;
15816;SDS011;8009;50.070;8.232;2023-11-22T22:07:49;3.40;;;3.17;;
15816;SDS011;8009;50.070;8.232;2023-11-22T22:10:19;4.50;;;3.83;;
15816;SDS011;8009;50.070;8.232;2023-11-22T22:12:48;3.23;;;3.00;;
15816;SDS011;8009;50.070;8.232;2023-11-22T22:15:16;3.50;;;3.30;;
15816;SDS011;8009;50.070;8.232;2023-11-22T22:17:48;4.10;;;3.53;;
15816;SDS011;8009;50.070;8.232;2023-11-22T22:20:17;3.67;;;3.47;;
15816;SDS011;8009;50.070;8.232;2023-11-22T22:22:48;3.33;;;3.13;;
15816;SDS011;8009;50.070;8.232;2023-11-22T22:25:16;3.03;;;2.83;;
15816;SDS011;8009;50.070;8.232;2023-11-22T22:27:47;2.60;;;2.40;;
15816;SDS011;8009;50.070;8.232;2023-11-22T22:30:16;3.77;;;3.00;;
15816;SDS011;8009;50.070;8.232;2023-11-22T22:32:44;3.03;;;2.83;;
15816;SDS011;8009;50.070;8.232;2023-11-22T22:35:15;3.47;;;3.17;;
15816;SDS011;8009;50.070;8.232;2023-11-22T22:37:44;2.50;;;2.40;;
15816;SDS011;8009;50.070;8.232;2023-11-22T22:40:13;3.30;;;3.07;;
15816;SDS011;8009;50.070;8.232;2023-11-22T22:42:41;3.87;;;3.20;;
15816;SDS011;8009;50.070;8.232;2023-11-22T22:45:09;5.73;;;3.47;;
15816;SDS011;8009;50.070;8.232;2023-11-22T22:47:38;2.57;;;2.37;;
15816;SDS011;8009;50.070;8.232;2023-11-22T22:50:11;4.60;;;3.60;;
15816;SDS011;8009;50.070;8.232;2023-11-22T22:52:42;2.60;;;2.40;;
15816;SDS011;8009;50.070;8.232;2023-11-22T22:55:11;2.57;;;2.47;;
15816;SDS011;8009;50.070;8.232;2023-11-22T22:57:39;2.80;;;2.60;;
15816;SDS011;8009;50.070;8.232;2023-11-22T23:00:08;2.37;;;2.27;;
15816;SDS011;8009;50.070;8.232;2023-11-22T23:02:48;3.77;;;2.87;;
15816;SDS011;8009;50.070;8.232;2023-11-22T23:05:16;2.83;;;2.63;;
15816;SDS011;8009;50.070;8.232;2023-11-22T23:07:47;2.43;;;2.27;;
15816;SDS011;8009;50.070;8.232;2023-11-22T23:10:15;2.70;;;2.50;;
15816;SDS011;8009;50.070;8.232;2023-11-22T23:12:44;3.30;;;2.90;;
15816;SDS011;8009;50.070;8.232;2023-11-22T23:15:12;3.77;;;3.47;;
15816;SDS011;8009;50.070;8.232;2023-11-22T23:17:40;3.37;;;3.07;;
15816;SDS011;8009;50.070;8.232;2023-11-22T23:20:09;4.13;;;3.30;;
15816;SDS011;8009;50.070;8.232;2023-11-22T23:22:41;2.40;;;2.23;;
15816;SDS011;8009;50.070;8.232;2023-11-22T23:25:11;3.13;;;2.83;;
15816;SDS011;8009;50.070;8.232;2023-11-22T23:27:44;2.17;;;2.07;;
15816;SDS011;8009;50.070;8.232;2023-11-22T23:30:13;2.87;;;2.67;;
15816;SDS011;8009;50.070;8.232;2023-11-22T23:32:42;3.50;;;3.20;;
15816;SDS011;8009;50.070;8.232;2023-11-22T23:35:11;3.37;;;3.17;;
15816;SDS011;8009;50.070;8.232;2023-11-22T23:37:42;3.40;;;3.20;;
15816;SDS011;8009;50.070;8.232;2023-11-22T23:40:13;6.97;;;2.90;;
15816;SDS011;8009;50.070;8.232;2023-11-22T23:42:48;2.90;;;2.67;;
15816;SDS011;8009;50.070;8.232;2023-11-22T23:45:18;3.63;;;3.33;;
15816;SDS011;8009;50.070;8.232;2023-11-22T23:47:48;3.27;;;2.67;;
15816;SDS011;8009;50.070;8.232;2023-11-22T23:50:16;2.73;;;2.53;;
15816;SDS011;8009;50.070;8.232;2023-11-22T23:52:45;3.00;;;2.80;;
15816;SDS011;8009;50.070;8.232;2023-11-22T23:55:17;3.53;;;3.20;;
15816;SDS011;8009;50.070;8.232;2023-11-22T23:57:48;2.90;;;2.70;;
